Time;durP1;ratioP1;P1;durP2;ratioP2;P2;SDS_P1;SDS_P2;PMS_P1;PMS_P2;Temp;Humidity;BMP_temperature;BMP_pressure;BME280_temperature;BME280_humidity;BME280_pressure;Samples;Min_cycle;Max_cycle;Signal;HPM_P1;HPM_P2
2023/05/04 00:01:47;;;;;;;10.45;4.40;;;7.20;99.90;;;;;;5110890;28;20553;-67
2023/05/04 00:04:13;;;;;;;9.82;4.25;;;7.20;99.90;;;;;;5086873;28;20039;-67
2023/05/04 00:06:39;;;;;;;9.13;4.00;;;7.30;99.90;;;;;;5091712;28;20043;-67
2023/05/04 00:09:05;;;;;;;9.93;4.25;;;7.20;99.90;;;;;;5091608;28;20507;-67
2023/05/04 00:11:31;;;;;;;11.73;4.63;;;7.20;99.90;;;;;;5107169;28;20044;-67
2023/05/04 00:13:58;;;;;;;11.10;3.78;;;7.10;99.90;;;;;;5108612;28;20055;-67
2023/05/04 00:16:23;;;;;;;12.90;4.95;;;7.10;99.90;;;;;;5132646;27;20046;-67
2023/05/04 00:18:49;;;;;;;9.15;4.32;;;7.10;99.90;;;;;;5116032;28;20122;-67
2023/05/04 00:21:15;;;;;;;8.63;4.18;;;7.10;99.90;;;;;;5098089;28;20043;-67
2023/05/04 00:23:41;;;;;;;9.50;4.63;;;7.10;99.90;;;;;;5096118;28;20035;-67
2023/05/04 00:26:06;;;;;;;9.88;4.30;;;7.10;99.90;;;;;;5095555;28;20036;-67
2023/05/04 00:28:32;;;;;;;10.18;4.40;;;7.00;99.90;;;;;;5095510;28;20044;-68
2023/05/04 00:30:57;;;;;;;12.55;5.00;;;7.00;99.90;;;;;;5091586;28;20040;-67
2023/05/04 10:18:55;;;;;;;12.38;5.30;;;15.70;99.90;;;;;;5094991;27;20071;-68
2023/05/04 10:21:41;;;;;;;10.73;5.20;;;15.70;99.40;;;;;;5094620;28;20059;-69
2023/05/04 10:24:48;;;;;;;11.30;5.47;;;15.70;99.90;;;;;;5083165;28;20061;-68
2023/05/04 10:27:17;;;;;;;8.88;4.80;;;15.80;99.90;;;;;;5094445;28;20055;-69
2023/05/04 10:29:48;;;;;;;9.05;5.25;;;16.00;99.90;;;;;;5096617;28;20089;-69
2023/05/04 10:32:18;;;;;;;8.02;5.00;;;16.00;97.70;;;;;;5063564;28;20113;-68
2023/05/04 10:34:44;;;;;;;11.80;5.45;;;16.10;99.40;;;;;;5076249;28;20123;-75
2023/05/04 10:37:16;;;;;;;10.55;5.47;;;16.10;98.30;;;;;;5076443;28;20073;-77
2023/05/04 10:39:51;;;;;;;10.77;4.95;;;16.20;99.90;;;;;;5078338;28;20142;-74
2023/05/04 10:42:17;;;;;;;13.52;5.00;;;16.30;99.90;;;;;;5081427;28;20028;-69
2023/05/04 10:44:50;;;;;;;9.90;5.00;;;16.40;99.90;;;;;;5096430;28;20465;-69
2023/05/04 10:47:31;;;;;;;10.07;5.07;;;16.50;98.50;;;;;;5096316;28;20040;-69
2023/05/04 10:50:05;;;;;;;9.93;4.63;;;16.50;99.90;;;;;;5071376;27;20038;-69
2023/05/04 10:52:47;;;;;;;13.90;6.25;;;16.60;99.30;;;;;;5081341;28;20049;-69
2023/05/04 10:55:13;;;;;;;;;;;16.60;98.20;;;;;;5096675;28;20027;-69
2023/05/04 10:57:48;;;;;;;9.95;4.97;;;16.60;97.10;;;;;;5069496;28;20364;-76
2023/05/04 11:00:14;;;;;;;15.25;5.28;;;16.60;99.90;;;;;;5080747;28;20044;-76
2023/05/04 11:02:40;;;;;;;12.13;5.35;;;16.70;97.80;;;;;;5079605;28;20376;-70
2023/05/04 11:05:06;;;;;;;9.50;5.28;;;16.70;99.90;;;;;;5094939;28;20034;-70
2023/05/04 11:07:37;;;;;;;10.68;5.65;;;16.80;98.80;;;;;;5105944;28;20058;-70
2023/05/04 11:10:08;;;;;;;12.00;5.35;;;16.80;99.70;;;;;;5095683;28;20043;-70
2023/05/04 11:12:34;;;;;;;11.35;5.88;;;16.90;99.00;;;;;;5095917;28;20054;-70
2023/05/04 11:15:08;;;;;;;11.93;6.05;;;17.00;99.90;;;;;;5095548;28;20089;-71
2023/05/04 11:17:33;;;;;;;12.80;5.22;;;17.20;98.80;;;;;;5088260;28;20051;-70
2023/05/04 11:19:59;;;;;;;12.88;5.82;;;17.30;99.90;;;;;;5095642;28;20051;-71
2023/05/04 11:22:25;;;;;;;11.45;5.28;;;17.40;98.30;;;;;;5078908;28;20032;-73
2023/05/04 11:24:55;;;;;;;10.85;5.47;;;17.40;97.80;;;;;;5093816;28;20492;-72
2023/05/04 11:27:22;;;;;;;11.63;5.20;;;17.50;97.40;;;;;;5070792;28;20097;-70
2023/05/04 11:30:03;;;;;;;9.32;5.30;;;17.60;99.50;;;;;;5075694;28;20125;-71
2023/05/04 11:32:45;;;;;;;11.40;5.80;;;17.60;96.40;;;;;;5075383;28;20044;-71
2023/05/04 11:35:21;;;;;;;11.40;5.70;;;17.50;97.20;;;;;;5057892;28;20495;-71
2023/05/04 11:37:48;;;;;;;12.63;5.65;;;17.60;97.70;;;;;;5077472;28;20036;-71
2023/05/04 11:40:19;;;;;;;11.18;5.50;;;17.70;97.80;;;;;;5077568;28;20040;-70
2023/05/04 11:42:45;;;;;;;12.05;5.78;;;17.60;94.40;;;;;;5088668;28;20035;-71
2023/05/04 11:45:25;;;;;;;11.65;6.13;;;17.60;96.70;;;;;;5080272;28;20040;-70
2023/05/04 11:47:51;;;;;;;9.50;5.57;;;17.70;96.30;;;;;;5089533;28;20047;-71
2023/05/04 11:50:19;;;;;;;12.45;6.22;;;17.70;97.40;;;;;;5106905;28;20032;-70
2023/05/04 11:52:45;;;;;;;9.75;4.32;;;17.80;92.10;;;;;;5078522;28;20036;-70
2023/05/04 11:55:12;;;;;;;10.75;5.28;;;17.90;93.50;;;;;;5095370;28;20086;-71
2023/05/04 11:57:38;;;;;;;11.85;5.95;;;17.90;93.90;;;;;;5076080;28;20434;-70
2023/05/04 12:00:05;;;;;;;9.07;4.95;;;17.90;92.20;;;;;;5066413;28;20027;-70
2023/05/04 12:02:31;;;;;;;10.15;5.47;;;17.90;94.80;;;;;;5089968;28;20047;-70
2023/05/04 12:04:57;;;;;;;10.95;5.20;;;18.00;94.40;;;;;;5074290;28;20067;-70
2023/05/04 12:07:23;;;;;;;9.90;5.00;;;18.00;93.50;;;;;;5092478;28;20468;-71
2023/05/04 12:09:49;;;;;;;13.35;5.43;;;18.00;93.40;;;;;;5091579;28;20111;-70
2023/05/04 12:12:20;;;;;;;11.30;5.70;;;18.00;93.20;;;;;;5115540;28;20474;-70
2023/05/04 12:14:46;;;;;;;8.70;4.90;;;17.90;93.30;;;;;;5115477;28;20510;-70
2023/05/04 12:17:11;;;;;;;11.27;4.80;;;18.00;93.80;;;;;;5093287;28;20040;-70
2023/05/04 12:19:46;;;;;;;8.30;4.45;;;18.10;92.00;;;;;;5078418;28;20071;-71
2023/05/04 12:22:12;;;;;;;10.95;4.60;;;18.00;90.50;;;;;;5077672;28;20047;-70
2023/05/04 12:24:38;;;;;;;8.25;4.35;;;18.10;92.10;;;;;;5087061;28;20080;-70
2023/05/04 12:27:04;;;;;;;9.20;4.22;;;18.10;92.60;;;;;;5083727;28;20385;-71
2023/05/04 12:29:30;;;;;;;11.88;5.10;;;18.10;93.10;;;;;;5079575;28;20047;-73
2023/05/04 12:31:55;;;;;;;24.48;5.28;;;18.10;89.70;;;;;;5091571;28;20451;-71
2023/05/04 12:34:21;;;;;;;13.32;4.78;;;18.10;87.00;;;;;;5082950;28;20090;-71
2023/05/04 12:36:50;;;;;;;12.32;4.57;;;18.10;86.80;;;;;;5114031;28;20552;-71
2023/05/04 12:39:16;;;;;;;9.23;4.38;;;18.20;85.00;;;;;;5076455;28;20039;-70
2023/05/04 12:41:41;;;;;;;9.65;4.20;;;18.30;81.40;;;;;;5085737;28;20032;-69
2023/05/04 12:44:10;;;;;;;7.75;3.63;;;18.30;84.20;;;;;;5097962;28;20159;-70
2023/05/04 12:46:36;;;;;;;10.15;3.85;;;18.30;84.70;;;;;;5114192;28;20071;-70
2023/05/04 12:49:01;;;;;;;7.50;3.63;;;18.30;79.80;;;;;;5079785;28;20082;-69
2023/05/04 12:51:27;;;;;;;9.32;4.10;;;18.30;86.10;;;;;;5086507;28;20048;-70
2023/05/04 12:53:52;;;;;;;10.93;4.05;;;18.30;81.20;;;;;;5076727;28;20408;-70
2023/05/04 12:56:18;;;;;;;7.43;4.03;;;18.40;79.30;;;;;;5060672;28;20089;-70
2023/05/04 12:58:43;;;;;;;6.70;3.67;;;18.50;84.50;;;;;;5077708;28;20040;-69
2023/05/04 13:01:09;;;;;;;6.50;3.58;;;18.50;82.80;;;;;;5105124;28;20453;-70
2023/05/04 13:03:35;;;;;;;10.73;4.38;;;18.50;83.60;;;;;;5098343;28;20051;-70
2023/05/04 13:06:00;;;;;;;7.78;3.55;;;18.60;78.50;;;;;;5082798;28;20032;-70
2023/05/04 13:08:26;;;;;;;7.47;4.07;;;18.60;82.80;;;;;;5080370;28;20050;-70
2023/05/04 13:10:51;;;;;;;9.98;4.13;;;18.70;82.00;;;;;;5079131;28;20054;-70
2023/05/04 13:13:18;;;;;;;6.53;3.08;;;18.70;81.80;;;;;;5080570;28;20047;-69
2023/05/04 13:15:44;;;;;;;8.85;3.53;;;18.70;82.70;;;;;;5084534;28;20557;-69
2023/05/04 13:18:09;;;;;;;7.22;4.10;;;18.70;73.40;;;;;;5077267;28;20418;-69
2023/05/04 13:20:35;;;;;;;7.53;4.10;;;18.60;78.60;;;;;;5078199;28;20058;-69
2023/05/04 13:23:00;;;;;;;11.48;4.35;;;18.60;80.30;;;;;;5077368;28;20472;-69
2023/05/04 13:25:26;;;;;;;7.65;3.72;;;18.60;80.50;;;;;;5092571;28;20032;-70
2023/05/04 13:27:52;;;;;;;9.05;3.85;;;18.60;76.90;;;;;;5077427;28;20047;-69
2023/05/04 13:30:19;;;;;;;7.70;3.42;;;18.70;75.40;;;;;;5078024;28;20378;-69
2023/05/04 13:32:45;;;;;;;7.95;3.17;;;18.70;80.70;;;;;;5065970;28;20044;-69
2023/05/04 13:35:11;;;;;;;8.68;3.83;;;18.80;78.80;;;;;;5066810;28;20511;-68
2023/05/04 13:37:37;;;;;;;6.80;3.25;;;18.90;76.50;;;;;;5097500;28;20027;-75
2023/05/04 13:40:03;;;;;;;7.85;3.90;;;18.70;76.20;;;;;;5112990;28;20069;-75
2023/05/04 13:42:29;;;;;;;10.15;3.72;;;18.70;70.20;;;;;;5075540;28;20040;-77
2023/05/04 13:44:54;;;;;;;9.05;3.40;;;18.60;72.00;;;;;;5094804;28;20037;-70
2023/05/04 13:47:20;;;;;;;6.70;3.55;;;18.70;76.30;;;;;;5097503;28;20059;-70
2023/05/04 13:49:46;;;;;;;6.72;3.42;;;18.60;71.00;;;;;;5072850;28;20043;-69
2023/05/04 13:52:12;;;;;;;7.43;3.40;;;18.60;75.20;;;;;;5100472;28;20027;-70
2023/05/04 13:54:37;;;;;;;8.30;3.42;;;18.60;79.30;;;;;;5084324;28;20127;-70
2023/05/04 13:57:03;;;;;;;11.07;3.53;;;18.70;76.60;;;;;;5075895;28;20031;-70
2023/05/04 13:59:29;;;;;;;7.90;3.63;;;18.70;76.60;;;;;;5101126;28;20602;-69
2023/05/04 14:01:54;;;;;;;6.05;3.50;;;18.70;79.60;;;;;;5084385;28;20456;-70
2023/05/04 14:04:21;;;;;;;8.10;3.35;;;18.80;77.60;;;;;;5097386;28;20054;-69
2023/05/04 14:06:50;;;;;;;8.18;3.67;;;18.80;78.90;;;;;;5087113;28;20510;-70
2023/05/04 14:09:16;;;;;;;8.95;3.58;;;18.80;74.80;;;;;;5066683;28;20074;-70
2023/05/04 14:11:42;;;;;;;8.90;3.47;;;18.80;76.40;;;;;;5076398;28;20528;-69
2023/05/04 14:14:08;;;;;;;7.35;3.95;;;18.80;76.90;;;;;;5086339;28;20052;-69
2023/05/04 14:16:34;;;;;;;8.60;4.13;;;18.80;76.90;;;;;;5095094;28;20476;-70
2023/05/04 14:19:00;;;;;;;6.50;3.65;;;18.70;75.60;;;;;;5072078;28;20500;-70
2023/05/04 14:21:25;;;;;;;9.98;4.43;;;18.70;76.90;;;;;;5076311;28;20050;-70
2023/05/04 14:23:51;;;;;;;8.32;4.07;;;18.70;73.90;;;;;;5059498;28;20039;-72
2023/05/04 14:26:17;;;;;;;10.05;3.83;;;18.60;77.70;;;;;;5076375;28;20446;-73
2023/05/04 14:28:42;;;;;;;10.90;4.45;;;18.60;79.80;;;;;;5076953;28;20048;-73
2023/05/04 14:31:08;;;;;;;10.10;4.07;;;18.70;78.80;;;;;;5095018;27;20122;-73
2023/05/04 14:33:39;;;;;;;9.05;4.30;;;18.80;79.40;;;;;;5089187;28;20031;-73
2023/05/04 14:36:06;;;;;;;13.63;4.80;;;18.80;79.10;;;;;;5074010;28;20032;-73
2023/05/04 14:38:34;;;;;;;6.65;3.70;;;18.70;71.90;;;;;;5080769;28;20148;-73
2023/05/04 14:41:00;;;;;;;9.07;3.92;;;18.80;77.60;;;;;;5102039;28;20047;-73
2023/05/04 14:43:26;;;;;;;9.13;3.53;;;18.90;78.20;;;;;;5096100;28;20035;-73
2023/05/04 14:45:52;;;;;;;7.20;3.47;;;19.00;80.70;;;;;;5064828;28;20135;-73
2023/05/04 14:48:18;;;;;;;7.68;3.72;;;18.90;79.20;;;;;;5073193;28;20041;-73
2023/05/04 14:50:43;;;;;;;9.35;3.90;;;19.00;76.40;;;;;;5092753;28;20028;-76
2023/05/04 14:53:23;;;;;;;7.45;3.95;;;19.10;74.80;;;;;;5079560;27;20406;-77
2023/05/04 14:55:49;;;;;;;7.80;3.60;;;19.00;73.20;;;;;;5066839;28;20499;-77
2023/05/04 14:58:16;;;;;;;8.57;3.33;;;19.00;76.50;;;;;;5058037;28;20033;-77
2023/05/04 15:00:43;;;;;;;8.13;4.15;;;18.80;76.50;;;;;;5065420;28;20505;-77
2023/05/04 15:03:09;;;;;;;7.85;3.80;;;18.80;75.10;;;;;;5045875;28;20450;-77
2023/05/04 15:05:35;;;;;;;7.65;3.50;;;18.70;78.50;;;;;;5069448;28;20041;-77
2023/05/04 15:08:01;;;;;;;9.23;3.72;;;18.70;79.70;;;;;;5048619;28;20132;-75
2023/05/04 15:10:27;;;;;;;8.32;3.85;;;18.70;79.40;;;;;;5041963;28;20524;-75
2023/05/04 15:12:52;;;;;;;10.45;3.63;;;18.80;77.70;;;;;;5058497;28;20037;-74
2023/05/04 15:15:22;;;;;;;10.02;4.07;;;18.60;76.20;;;;;;5085132;28;20489;-75
2023/05/04 15:17:48;;;;;;;11.00;4.22;;;18.60;79.70;;;;;;5067572;28;20510;-76
2023/05/04 15:20:15;;;;;;;9.57;3.90;;;18.70;79.40;;;;;;5061764;28;20489;-75
2023/05/04 15:22:41;;;;;;;7.20;3.00;;;18.80;78.50;;;;;;5063492;28;20108;-75
2023/05/04 15:25:07;;;;;;;9.30;3.80;;;18.90;75.90;;;;;;5046168;28;20093;-75
2023/05/04 15:27:33;;;;;;;9.73;3.90;;;18.90;75.00;;;;;;5068374;28;20049;-75
2023/05/04 15:29:59;;;;;;;8.00;3.83;;;18.90;74.60;;;;;;5060239;28;20033;-74
2023/05/04 15:32:24;;;;;;;10.00;3.58;;;18.80;74.20;;;;;;5068137;28;20037;-74
2023/05/04 15:34:50;;;;;;;8.25;4.25;;;18.80;75.10;;;;;;5050410;28;20029;-74
2023/05/04 15:37:16;;;;;;;9.50;3.72;;;18.70;76.40;;;;;;5066825;28;20072;-74
2023/05/04 15:39:41;;;;;;;8.63;3.67;;;18.70;79.80;;;;;;5051371;28;20131;-73
2023/05/04 15:42:07;;;;;;;11.60;5.05;;;18.70;76.20;;;;;;5041444;28;20044;-74
2023/05/04 15:44:33;;;;;;;9.40;4.28;;;18.60;75.10;;;;;;5065008;28;20036;-75
2023/05/04 15:46:59;;;;;;;8.50;4.18;;;18.50;79.00;;;;;;5041595;28;20037;-75
2023/05/04 15:49:25;;;;;;;9.85;4.05;;;18.60;78.60;;;;;;5063972;28;20045;-74
2023/05/04 15:51:52;;;;;;;7.45;3.53;;;18.60;79.20;;;;;;5052251;28;20131;-72
2023/05/04 15:54:18;;;;;;;7.05;3.38;;;18.50;80.10;;;;;;5048352;28;20059;-72
2023/05/04 15:56:43;;;;;;;10.13;4.80;;;18.50;81.20;;;;;;5064006;28;20045;-72
2023/05/04 15:59:09;;;;;;;9.07;4.03;;;18.50;81.70;;;;;;5056038;28;20123;-72
2023/05/04 16:01:36;;;;;;;6.68;4.05;;;18.50;81.20;;;;;;5084395;28;20091;-73
2023/05/04 16:04:01;;;;;;;10.30;4.25;;;18.40;79.90;;;;;;5060688;28;20080;-73
2023/05/04 16:06:27;;;;;;;10.50;4.00;;;18.40;80.80;;;;;;5050786;28;20041;-73
2023/05/04 16:08:53;;;;;;;8.75;4.15;;;18.30;81.80;;;;;;5029528;28;20037;-73
2023/05/04 16:11:25;;;;;;;12.45;5.00;;;18.40;80.50;;;;;;5023044;28;20393;-73
2023/05/04 16:13:50;;;;;;;8.52;4.15;;;18.30;82.90;;;;;;5048312;28;20116;-73
2023/05/04 16:16:16;;;;;;;10.98;4.32;;;18.30;83.50;;;;;;5043975;28;20120;-73
2023/05/04 16:18:42;;;;;;;8.85;4.20;;;18.30;83.40;;;;;;5048956;28;20033;-73
2023/05/04 16:21:08;;;;;;;11.30;5.07;;;18.30;86.00;;;;;;5029766;28;20036;-73
2023/05/04 16:23:35;;;;;;;10.10;4.32;;;18.30;82.30;;;;;;5040123;28;20041;-73
2023/05/04 16:26:00;;;;;;;10.32;4.78;;;18.20;83.30;;;;;;5024575;28;20034;-74
2023/05/04 16:28:27;;;;;;;8.80;4.47;;;18.20;83.70;;;;;;5036507;28;20073;-73
2023/05/04 16:30:53;;;;;;;9.60;4.28;;;18.20;86.80;;;;;;5042648;28;20044;-73
2023/05/04 16:33:18;;;;;;;10.27;3.58;;;18.10;84.60;;;;;;5048240;28;20044;-73
2023/05/04 16:35:44;;;;;;;12.23;4.28;;;18.10;88.40;;;;;;5044756;28;20482;-73
2023/05/04 16:38:13;;;;;;;9.95;4.25;;;18.20;89.60;;;;;;5035208;28;20461;-72
2023/05/04 16:40:40;;;;;;;9.63;4.53;;;18.20;87.30;;;;;;5044485;28;20045;-72
2023/05/04 16:43:06;;;;;;;10.68;4.80;;;18.10;85.80;;;;;;5044069;28;20037;-73
2023/05/04 16:45:32;;;;;;;11.95;4.57;;;18.10;83.00;;;;;;5039026;28;20037;-73
2023/05/04 16:47:58;;;;;;;11.52;5.22;;;18.10;83.80;;;;;;5022771;28;20033;-73
2023/05/04 16:50:24;;;;;;;10.68;4.45;;;18.00;85.30;;;;;;5034432;28;20041;-73
2023/05/04 16:52:50;;;;;;;10.07;4.82;;;18.00;86.90;;;;;;5044571;28;20102;-73
2023/05/04 16:55:15;;;;;;;10.02;4.90;;;17.90;84.80;;;;;;5051577;28;20179;-72
2023/05/04 16:57:41;;;;;;;10.68;4.47;;;17.90;85.20;;;;;;5049215;28;20037;-73
2023/05/04 17:00:08;;;;;;;10.18;4.70;;;17.90;85.00;;;;;;5033506;28;20037;-73
2023/05/04 17:02:34;;;;;;;9.10;4.25;;;17.80;83.90;;;;;;5023843;28;20040;-73
2023/05/04 17:05:00;;;;;;;12.82;4.80;;;17.90;85.20;;;;;;5033773;28;20504;-73
2023/05/04 17:07:25;;;;;;;9.23;4.35;;;17.80;83.80;;;;;;5035638;28;20049;-73
2023/05/04 17:09:51;;;;;;;10.40;4.70;;;17.70;85.30;;;;;;5050094;28;20052;-72
2023/05/04 17:12:17;;;;;;;8.18;4.80;;;17.70;82.60;;;;;;5031939;28;20131;-73
2023/05/04 17:14:42;;;;;;;11.40;5.18;;;17.70;82.70;;;;;;5023301;28;20033;-72
2023/05/04 17:17:08;;;;;;;9.48;4.13;;;17.70;82.50;;;;;;5040279;28;20461;-73
2023/05/04 17:19:34;;;;;;;11.82;4.40;;;17.70;85.50;;;;;;5045505;28;20033;-72
2023/05/04 17:22:00;;;;;;;12.40;4.25;;;17.70;83.70;;;;;;5035557;28;20075;-71
2023/05/04 17:24:26;;;;;;;11.55;4.45;;;17.60;84.70;;;;;;5033662;28;20061;-71
2023/05/04 17:26:51;;;;;;;7.75;4.30;;;17.60;77.90;;;;;;5023106;28;20037;-71
2023/05/04 17:29:17;;;;;;;10.13;4.88;;;17.60;82.00;;;;;;5035361;28;20064;-71
2023/05/04 17:31:42;;;;;;;9.43;4.45;;;17.60;80.60;;;;;;5027182;28;20052;-72
2023/05/04 17:34:08;;;;;;;9.98;4.78;;;17.50;84.80;;;;;;5027442;28;20068;-71
2023/05/04 17:36:34;;;;;;;10.25;5.20;;;17.60;85.60;;;;;;5031722;28;20078;-71
2023/05/04 17:39:00;;;;;;;10.07;4.90;;;17.50;84.40;;;;;;5038791;28;20059;-71
2023/05/04 17:41:25;;;;;;;10.68;4.72;;;17.40;87.60;;;;;;5041285;28;20112;-72
2023/05/04 17:43:52;;;;;;;8.93;4.90;;;17.40;89.00;;;;;;5040513;28;20049;-71
2023/05/04 17:46:19;;;;;;;10.50;4.80;;;17.30;88.50;;;;;;5045451;28;20045;-71
2023/05/04 17:48:44;;;;;;;10.50;5.00;;;17.30;90.10;;;;;;5024161;28;20389;-71
2023/05/04 17:51:10;;;;;;;9.82;4.88;;;17.30;86.40;;;;;;5020703;28;20033;-71
2023/05/04 17:53:36;;;;;;;11.80;5.00;;;17.20;85.10;;;;;;5044636;28;20060;-71
2023/05/04 17:56:02;;;;;;;9.63;4.68;;;17.20;85.70;;;;;;5047270;28;20041;-70
2023/05/04 17:58:28;;;;;;;10.95;4.90;;;17.20;88.10;;;;;;5052234;28;20524;-71
2023/05/04 18:00:53;;;;;;;9.32;4.90;;;17.20;86.40;;;;;;5052023;28;20033;-71
2023/05/04 18:03:19;;;;;;;10.65;4.70;;;17.10;85.80;;;;;;5035803;28;20038;-71
2023/05/04 18:05:45;;;;;;;11.18;5.18;;;17.10;85.00;;;;;;5024222;28;20045;-71
2023/05/04 18:08:11;;;;;;;9.15;4.97;;;17.10;85.00;;;;;;5049128;28;20041;-71
2023/05/04 18:10:37;;;;;;;9.60;4.60;;;17.00;88.90;;;;;;5048232;28;20128;-70
2023/05/04 18:13:04;;;;;;;10.07;4.63;;;17.00;89.10;;;;;;5029612;28;20033;-70
2023/05/04 18:15:29;;;;;;;12.05;4.82;;;16.90;88.10;;;;;;5022304;28;20041;-71
2023/05/04 18:17:55;;;;;;;12.10;4.72;;;16.90;87.80;;;;;;5037675;28;20121;-71
2023/05/04 18:20:20;;;;;;;10.55;5.00;;;16.90;90.70;;;;;;5037171;28;20045;-70
2023/05/04 18:22:46;;;;;;;8.43;4.43;;;16.80;91.00;;;;;;5048713;28;20413;-71
2023/05/04 18:25:14;;;;;;;8.18;4.28;;;16.70;91.30;;;;;;5029766;28;20053;-70
2023/05/04 18:27:40;;;;;;;9.88;5.53;;;16.70;91.10;;;;;;5024735;28;20144;-70
2023/05/04 18:30:07;;;;;;;8.90;4.90;;;16.70;91.90;;;;;;5048664;28;20541;-70
2023/05/04 18:32:33;;;;;;;9.23;4.65;;;16.60;93.70;;;;;;5028902;28;20024;-70
2023/05/04 18:35:00;;;;;;;9.50;4.55;;;16.40;95.60;;;;;;5042630;28;20037;-71
2023/05/04 18:37:29;;;;;;;9.93;4.50;;;16.40;97.60;;;;;;5031887;28;20037;-70
2023/05/04 18:39:55;;;;;;;11.00;3.92;;;16.30;98.50;;;;;;5053883;28;20045;-71
2023/05/04 18:42:20;;;;;;;9.85;4.05;;;16.30;99.90;;;;;;5032823;28;20505;-70
2023/05/04 18:44:46;;;;;;;9.70;4.20;;;16.20;99.90;;;;;;5067646;28;20040;-70
2023/05/04 18:47:12;;;;;;;8.32;3.63;;;16.10;99.90;;;;;;5033284;28;20073;-70
2023/05/04 18:49:37;;;;;;;7.55;4.03;;;16.00;99.90;;;;;;5023177;28;20045;-70
2023/05/04 18:52:03;;;;;;;7.75;3.60;;;16.00;99.90;;;;;;5045518;28;20390;-70
2023/05/04 18:54:29;;;;;;;10.98;3.60;;;15.90;99.90;;;;;;5027824;28;20052;-70
2023/05/04 18:56:56;;;;;;;9.90;4.20;;;15.80;99.90;;;;;;5037273;28;20044;-71
2023/05/04 18:59:22;;;;;;;9.20;3.78;;;15.80;99.90;;;;;;5027166;28;20082;-71
2023/05/04 19:01:47;;;;;;;9.60;4.00;;;15.70;99.90;;;;;;5033079;28;20049;-71
2023/05/04 19:04:13;;;;;;;9.77;4.10;;;15.60;99.90;;;;;;5048117;28;20033;-71
2023/05/04 19:06:38;;;;;;;12.93;4.10;;;15.60;99.90;;;;;;5023104;28;20043;-71
2023/05/04 19:09:06;;;;;;;7.72;3.47;;;15.50;99.90;;;;;;5034894;28;20517;-71
2023/05/04 19:11:32;;;;;;;7.80;3.70;;;15.40;99.90;;;;;;5023717;28;20060;-71
2023/05/04 19:13:58;;;;;;;9.82;4.10;;;15.40;99.90;;;;;;5050206;28;20080;-71
2023/05/04 19:16:25;;;;;;;9.93;3.80;;;15.30;99.90;;;;;;5034998;28;20435;-70
2023/05/04 19:18:51;;;;;;;11.60;3.60;;;15.20;99.90;;;;;;5049339;28;20044;-70
2023/05/04 19:21:17;;;;;;;9.63;4.57;;;15.20;99.90;;;;;;5033099;28;20595;-80
2023/05/04 19:23:42;;;;;;;8.15;4.20;;;15.20;99.90;;;;;;5035875;28;20041;-70
2023/05/04 19:26:08;;;;;;;8.80;3.67;;;15.10;99.90;;;;;;5023449;28;20037;-71
2023/05/04 19:28:34;;;;;;;9.23;4.05;;;15.00;99.90;;;;;;5029581;28;20045;-70
2023/05/04 19:30:59;;;;;;;10.68;4.28;;;14.90;99.90;;;;;;5045329;28;20044;-70
2023/05/04 19:33:25;;;;;;;12.77;4.07;;;14.90;99.90;;;;;;5046591;28;20037;-71
2023/05/04 19:35:51;;;;;;;10.02;4.25;;;14.90;99.90;;;;;;5030865;28;20044;-71
2023/05/04 19:38:16;;;;;;;10.02;4.00;;;14.80;99.90;;;;;;5023688;28;20039;-71
2023/05/04 19:40:42;;;;;;;8.70;4.10;;;14.80;99.90;;;;;;5036939;28;20069;-71
2023/05/04 19:43:07;;;;;;;9.57;4.55;;;14.80;99.90;;;;;;5052093;28;20519;-71
2023/05/04 19:45:33;;;;;;;11.50;4.80;;;14.70;99.90;;;;;;5054245;28;20083;-71
2023/05/04 19:47:59;;;;;;;12.60;4.10;;;14.70;99.90;;;;;;5040399;28;20037;-71
2023/05/04 19:50:25;;;;;;;7.05;3.58;;;14.60;99.90;;;;;;5051613;28;20110;-71
2023/05/04 19:52:50;;;;;;;9.98;3.95;;;14.60;99.90;;;;;;5046257;28;20052;-71
2023/05/04 19:55:16;;;;;;;10.93;4.13;;;14.60;99.90;;;;;;5045224;28;20092;-70
2023/05/04 19:57:42;;;;;;;13.00;4.05;;;14.50;99.90;;;;;;5031998;28;20094;-71
2023/05/04 20:00:08;;;;;;;9.48;4.07;;;14.50;99.90;;;;;;5033979;28;20037;-71
2023/05/04 20:02:36;;;;;;;9.10;4.07;;;14.40;99.90;;;;;;5017213;28;20041;-71
2023/05/04 20:05:04;;;;;;;10.38;3.80;;;14.40;99.90;;;;;;5035704;28;20041;-72
2023/05/04 20:07:30;;;;;;;8.70;3.95;;;14.40;99.90;;;;;;5043042;28;20124;-71
2023/05/04 20:09:55;;;;;;;12.13;4.05;;;14.40;99.90;;;;;;5034957;28;20548;-71
2023/05/04 20:12:21;;;;;;;8.98;3.90;;;14.40;99.90;;;;;;5029744;28;20060;-71
2023/05/04 20:14:47;;;;;;;8.23;3.63;;;14.30;99.90;;;;;;5034749;28;20037;-71
2023/05/04 20:17:13;;;;;;;8.38;3.90;;;14.40;99.90;;;;;;5037598;28;20129;-71
2023/05/04 20:19:41;;;;;;;6.88;3.92;;;14.30;99.90;;;;;;5035628;28;20051;-70
2023/05/04 20:22:07;;;;;;;9.60;3.55;;;14.30;99.90;;;;;;5042026;28;20053;-71
2023/05/04 20:24:33;;;;;;;7.97;3.60;;;14.40;99.90;;;;;;5035427;28;20048;-71
2023/05/04 20:26:59;;;;;;;8.80;3.95;;;14.40;99.90;;;;;;5031862;28;20401;-71
2023/05/04 20:29:24;;;;;;;8.38;3.97;;;14.30;99.90;;;;;;5033163;28;20037;-71
2023/05/04 20:31:50;;;;;;;8.60;4.00;;;14.30;99.90;;;;;;5033916;28;20052;-71
2023/05/04 20:34:16;;;;;;;12.20;4.45;;;14.30;99.90;;;;;;5041855;28;20092;-70
2023/05/04 20:36:41;;;;;;;9.52;3.60;;;14.30;99.90;;;;;;5042294;28;20037;-71
2023/05/04 20:39:07;;;;;;;8.25;3.92;;;14.20;99.90;;;;;;5033601;28;20172;-71
2023/05/04 20:41:32;;;;;;;10.65;4.65;;;14.20;99.90;;;;;;5019879;28;20397;-71
2023/05/04 20:43:58;;;;;;;8.93;3.92;;;14.20;99.90;;;;;;5046841;28;20037;-71
2023/05/04 20:46:24;;;;;;;10.45;4.13;;;14.10;99.90;;;;;;5042836;28;20045;-71
2023/05/04 20:48:50;;;;;;;7.05;3.88;;;14.10;99.90;;;;;;5038635;28;20498;-71
2023/05/04 20:51:15;;;;;;;7.82;3.53;;;14.10;99.90;;;;;;5046394;28;20463;-71
2023/05/04 20:53:41;;;;;;;10.93;4.05;;;14.10;99.90;;;;;;5033247;28;20494;-71
2023/05/04 20:56:06;;;;;;;9.93;3.83;;;14.00;99.90;;;;;;5027648;28;20082;-70
2023/05/04 20:58:32;;;;;;;11.68;4.10;;;14.10;99.90;;;;;;5040266;28;20041;-71
2023/05/04 21:01:02;;;;;;;9.15;3.70;;;14.00;99.90;;;;;;5035690;28;20048;-71
2023/05/04 21:03:28;;;;;;;12.65;3.97;;;14.00;99.90;;;;;;5032851;28;20441;-71
2023/05/04 21:05:54;;;;;;;10.32;4.00;;;13.90;99.90;;;;;;5027886;28;20041;-70
2023/05/04 21:08:19;;;;;;;8.95;3.72;;;13.90;99.90;;;;;;5045934;28;20132;-71
2023/05/04 21:10:45;;;;;;;9.82;3.65;;;13.90;99.90;;;;;;5033923;28;20040;-70
2023/05/04 21:13:11;;;;;;;7.72;3.83;;;13.80;99.90;;;;;;5035157;28;20125;-70
2023/05/04 21:15:37;;;;;;;9.05;3.75;;;13.80;99.90;;;;;;5036668;28;20049;-70
2023/05/04 21:18:03;;;;;;;10.40;4.00;;;13.70;99.90;;;;;;5030639;28;20048;-70
2023/05/04 21:20:28;;;;;;;15.38;4.47;;;13.70;99.90;;;;;;5044872;28;20045;-71
2023/05/04 21:22:54;;;;;;;9.93;4.32;;;13.70;99.90;;;;;;5051505;28;20413;-71
2023/05/04 21:25:19;;;;;;;10.45;3.67;;;13.60;99.90;;;;;;5051483;28;20723;-71
2023/05/04 21:27:45;;;;;;;9.43;4.60;;;13.50;99.90;;;;;;5041053;28;20520;-70
2023/05/04 21:30:11;;;;;;;9.98;4.28;;;13.40;99.90;;;;;;5023955;28;20037;-71
2023/05/04 21:32:36;;;;;;;11.43;4.03;;;13.40;99.90;;;;;;5015481;28;20037;-70
2023/05/04 21:35:03;;;;;;;8.07;4.22;;;13.30;99.90;;;;;;5036096;28;20397;-71
2023/05/04 21:37:29;;;;;;;8.00;4.07;;;13.30;99.90;;;;;;5033208;28;20082;-71
2023/05/04 21:39:54;;;;;;;11.20;4.00;;;13.30;99.90;;;;;;5028432;28;20128;-71
2023/05/04 21:42:21;;;;;;;9.10;4.15;;;13.30;99.90;;;;;;5027767;28;20037;-71
2023/05/04 21:44:52;;;;;;;9.63;3.53;;;13.30;99.90;;;;;;5040967;28;20398;-70
2023/05/04 21:47:18;;;;;;;10.23;4.00;;;13.20;99.90;;;;;;5025614;28;20080;-71
2023/05/04 21:49:44;;;;;;;10.65;3.95;;;13.10;99.90;;;;;;5021406;28;20126;-71
2023/05/04 21:52:09;;;;;;;8.27;3.90;;;13.20;99.90;;;;;;5022680;28;20382;-71
2023/05/04 21:54:35;;;;;;;10.27;3.95;;;13.10;99.90;;;;;;5048627;28;20056;-70
2023/05/04 21:57:00;;;;;;;9.20;3.85;;;13.10;99.90;;;;;;5041380;28;20037;-71
2023/05/04 21:59:26;;;;;;;11.32;3.90;;;13.10;99.90;;;;;;5032383;28;20137;-71
2023/05/04 22:01:51;;;;;;;11.18;4.00;;;13.10;99.90;;;;;;5026290;28;20450;-71
2023/05/04 22:04:17;;;;;;;7.85;3.38;;;13.00;99.90;;;;;;5033926;28;20433;-71
2023/05/04 22:06:43;;;;;;;9.57;4.07;;;13.00;99.90;;;;;;5036210;28;20120;-71
2023/05/04 22:09:09;;;;;;;10.07;3.80;;;13.00;99.90;;;;;;5043374;28;20416;-70
2023/05/04 22:11:34;;;;;;;7.25;3.55;;;13.00;99.90;;;;;;5035480;28;20489;-71
2023/05/04 22:14:00;;;;;;;11.82;4.38;;;13.00;99.90;;;;;;5048318;28;20474;-71
2023/05/04 22:16:26;;;;;;;7.65;4.00;;;13.00;99.90;;;;;;5054535;28;20077;-71
2023/05/04 22:18:51;;;;;;;8.07;3.70;;;12.90;99.90;;;;;;5022657;28;20036;-71
2023/05/04 22:21:17;;;;;;;7.72;3.67;;;12.90;99.90;;;;;;5043726;28;20123;-71
2023/05/04 22:23:42;;;;;;;10.40;3.90;;;12.90;99.90;;;;;;5048785;28;20033;-71
2023/05/04 22:26:08;;;;;;;9.52;4.22;;;12.90;99.90;;;;;;5043900;28;20040;-71